sensor_id;sensor_type;location;lat;lon;timestamp;pressure;altitude;pressure_sealevel;temperature;humidity
59106;BME280;44891;50.204;8.132;2024-03-06T00:02:19;98304.06;;;2.88;100.00
59106;BME280;44891;50.204;8.132;2024-03-06T00:06:20;98312.16;;;2.78;100.00
59106;BME280;44891;50.204;8.132;2024-03-06T00:10:22;98318.75;;;2.81;100.00
59106;BME280;44891;50.204;8.132;2024-03-06T00:14:25;98326.66;;;2.72;100.00
59106;BME280;44891;50.204;8.132;2024-03-06T00:18:28;98329.88;;;2.75;100.00
59106;BME280;44891;50.204;8.132;2024-03-06T00:22:29;98342.69;;;2.61;100.00
59106;BME280;44891;50.204;8.132;2024-03-06T00:26:32;98344.44;;;2.76;100.00
59106;BME280;44891;50.204;8.132;2024-03-06T00:30:35;98342.47;;;2.78;100.00
59106;BME280;44891;50.204;8.132;2024-03-06T00:34:37;98342.28;;;2.79;100.00
59106;BME280;44891;50.204;8.132;2024-03-06T00:38:39;98357.81;;;2.58;100.00
59106;BME280;44891;50.204;8.132;2024-03-06T00:42:41;98356.28;;;2.27;100.00
59106;BME280;44891;50.204;8.132;2024-03-06T00:46:44;98360.28;;;2.30;100.00
59106;BME280;44891;50.204;8.132;2024-03-06T00:50:46;98356.13;;;2.50;100.00
59106;BME280;44891;50.204;8.132;2024-03-06T00:54:48;98367.91;;;2.31;100.00
59106;BME280;44891;50.204;8.132;2024-03-06T00:58:49;98363.91;;;2.50;100.00
59106;BME280;44891;50.204;8.132;2024-03-06T01:02:53;98362.88;;;2.44;100.00
59106;BME280;44891;50.204;8.132;2024-03-06T01:06:55;98360.63;;;2.41;100.00
59106;BME280;44891;50.204;8.132;2024-03-06T01:10:57;98354.66;;;2.26;100.00
59106;BME280;44891;50.204;8.132;2024-03-06T01:14:59;98360.75;;;2.18;100.00
59106;BME280;44891;50.204;8.132;2024-03-06T01:19:02;98361.28;;;2.29;100.00
59106;BME280;44891;50.204;8.132;2024-03-06T01:23:04;98354.66;;;2.26;100.00
59106;BME280;44891;50.204;8.132;2024-03-06T01:27:06;98356.38;;;2.19;100.00
59106;BME280;44891;50.204;8.132;2024-03-06T01:31:08;98361.41;;;2.06;100.00
59106;BME280;44891;50.204;8.132;2024-03-06T01:35:11;98344.06;;;2.06;100.00
59106;BME280;44891;50.204;8.132;2024-03-06T01:39:13;98354.97;;;2.02;100.00
59106;BME280;44891;50.204;8.132;2024-03-06T01:43:19;98353.47;;;1.93;100.00
59106;BME280;44891;50.204;8.132;2024-03-06T01:47:22;98354.59;;;1.90;100.00
59106;BME280;44891;50.204;8.132;2024-03-06T01:51:25;98354.09;;;1.80;100.00
59106;BME280;44891;50.204;8.132;2024-03-06T01:55:27;98368.25;;;1.84;100.00
59106;BME280;44891;50.204;8.132;2024-03-06T01:59:30;98373.09;;;1.87;100.00
59106;BME280;44891;50.204;8.132;2024-03-06T02:03:32;98369.16;;;1.91;100.00
59106;BME280;44891;50.204;8.132;2024-03-06T02:07:35;98370.69;;;1.85;100.00
59106;BME280;44891;50.204;8.132;2024-03-06T02:11:38;98368.25;;;1.84;100.00
59106;BME280;44891;50.204;8.132;2024-03-06T02:15:39;98363.63;;;1.79;100.00
59106;BME280;44891;50.204;8.132;2024-03-06T02:19:42;98369.34;;;1.75;100.00
59106;BME280;44891;50.204;8.132;2024-03-06T02:23:45;98372.03;;;1.81;100.00
59106;BME280;44891;50.204;8.132;2024-03-06T02:27:47;98375.78;;;1.79;100.00
59106;BME280;44891;50.204;8.132;2024-03-06T02:31:49;98386.84;;;1.73;100.00
59106;BME280;44891;50.204;8.132;2024-03-06T02:35:51;98384.97;;;1.67;100.00
59106;BME280;44891;50.204;8.132;2024-03-06T02:39:54;98388.78;;;1.71;100.00
59106;BME280;44891;50.204;8.132;2024-03-06T02:43:56;98383.69;;;1.77;100.00
59106;BME280;44891;50.204;8.132;2024-03-06T02:48:00;98382.94;;;1.92;100.00
59106;BME280;44891;50.204;8.132;2024-03-06T02:52:02;98384.16;;;1.81;100.00
59106;BME280;44891;50.204;8.132;2024-03-06T02:56:05;98382.38;;;1.67;100.00
59106;BME280;44891;50.204;8.132;2024-03-06T03:00:08;98381.88;;;1.48;100.00
59106;BME280;44891;50.204;8.132;2024-03-06T03:04:13;98375.44;;;1.44;100.00
59106;BME280;44891;50.204;8.132;2024-03-06T03:08:15;98378.69;;;1.46;100.00
59106;BME280;44891;50.204;8.132;2024-03-06T03:12:18;98381.56;;;1.28;100.00
59106;BME280;44891;50.204;8.132;2024-03-06T03:16:21;98379.53;;;1.39;100.00
59106;BME280;44891;50.204;8.132;2024-03-06T03:20:22;98390.25;;;1.35;100.00
59106;BME280;44891;50.204;8.132;2024-03-06T03:24:24;98398.59;;;1.23;100.00
59106;BME280;44891;50.204;8.132;2024-03-06T03:28:28;98392.16;;;1.19;100.00
59106;BME280;44891;50.204;8.132;2024-03-06T03:32:30;98390.31;;;1.27;100.00
59106;BME280;44891;50.204;8.132;2024-03-06T03:36:32;98393.81;;;1.34;100.00
59106;BME280;44891;50.204;8.132;2024-03-06T03:40:34;98388.25;;;1.23;100.00
59106;BME280;44891;50.204;8.132;2024-03-06T03:44:37;98387.94;;;1.18;100.00
59106;BME280;44891;50.204;8.132;2024-03-06T03:48:40;98397.44;;;1.25;100.00
59106;BME280;44891;50.204;8.132;2024-03-06T03:52:42;98399.88;;;1.27;100.00
59106;BME280;44891;50.204;8.132;2024-03-06T03:56:44;98406.94;;;1.33;100.00
59106;BME280;44891;50.204;8.132;2024-03-06T04:00:47;98412.63;;;1.28;100.00
59106;BME280;44891;50.204;8.132;2024-03-06T04:04:53;98411.13;;;1.34;100.00
59106;BME280;44891;50.204;8.132;2024-03-06T04:08:55;98419.06;;;1.09;100.00
59106;BME280;44891;50.204;8.132;2024-03-06T04:12:57;98413.25;;;1.07;100.00
59106;BME280;44891;50.204;8.132;2024-03-06T04:17:01;98421.03;;;1.07;100.00
59106;BME280;44891;50.204;8.132;2024-03-06T04:21:04;98427.56;;;1.18;100.00
59106;BME280;44891;50.204;8.132;2024-03-06T04:25:07;98426.38;;;1.06;100.00
59106;BME280;44891;50.204;8.132;2024-03-06T04:29:10;98430.19;;;1.10;100.00
59106;BME280;44891;50.204;8.132;2024-03-06T04:33:14;98436.72;;;1.29;100.00
59106;BME280;44891;50.204;8.132;2024-03-06T04:37:15;98432.81;;;1.33;100.00
59106;BME280;44891;50.204;8.132;2024-03-06T04:41:18;98436.31;;;1.40;100.00
59106;BME280;44891;50.204;8.132;2024-03-06T04:45:20;98444.00;;;1.48;100.00
59106;BME280;44891;50.204;8.132;2024-03-06T04:49:23;98439.88;;;1.39;100.00
59106;BME280;44891;50.204;8.132;2024-03-06T04:53:25;98444.69;;;1.42;100.00
59106;BME280;44891;50.204;8.132;2024-03-06T04:57:27;98449.41;;;1.39;100.00
59106;BME280;44891;50.204;8.132;2024-03-06T05:01:29;98455.41;;;1.39;100.00
59106;BME280;44891;50.204;8.132;2024-03-06T05:05:32;98460.28;;;1.34;100.00
59106;BME280;44891;50.204;8.132;2024-03-06T05:09:34;98461.03;;;1.20;100.00
59106;BME280;44891;50.204;8.132;2024-03-06T05:13:36;98469.97;;;1.32;100.00
59106;BME280;44891;50.204;8.132;2024-03-06T05:17:38;98474.03;;;1.34;100.00
59106;BME280;44891;50.204;8.132;2024-03-06T05:21:41;98477.22;;;1.36;100.00
59106;BME280;44891;50.204;8.132;2024-03-06T05:25:43;98480.19;;;1.33;100.00
59106;BME280;44891;50.204;8.132;2024-03-06T05:29:45;98483.91;;;1.31;100.00
59106;BME280;44891;50.204;8.132;2024-03-06T05:33:47;98487.59;;;1.36;100.00
59106;BME280;44891;50.204;8.132;2024-03-06T05:37:51;98495.97;;;1.39;100.00
59106;BME280;44891;50.204;8.132;2024-03-06T05:41:53;98497.31;;;1.34;100.00
59106;BME280;44891;50.204;8.132;2024-03-06T05:45:55;98508.69;;;1.48;100.00
59106;BME280;44891;50.204;8.132;2024-03-06T05:49:57;98517.66;;;1.38;100.00
59106;BME280;44891;50.204;8.132;2024-03-06T05:54:00;98514.44;;;1.35;100.00
59106;BME280;44891;50.204;8.132;2024-03-06T05:58:02;98523.25;;;1.18;100.00
59106;BME280;44891;50.204;8.132;2024-03-06T06:02:05;98524.91;;;1.19;100.00
59106;BME280;44891;50.204;8.132;2024-03-06T06:06:07;98533.56;;;0.95;100.00
59106;BME280;44891;50.204;8.132;2024-03-06T06:10:11;98535.13;;;1.04;100.00
59106;BME280;44891;50.204;8.132;2024-03-06T06:14:13;98546.47;;;1.03;100.00
59106;BME280;44891;50.204;8.132;2024-03-06T06:18:15;98544.75;;;0.88;100.00
59106;BME280;44891;50.204;8.132;2024-03-06T06:22:17;98546.00;;;1.00;100.00
59106;BME280;44891;50.204;8.132;2024-03-06T06:26:20;98547.56;;;1.09;100.00
59106;BME280;44891;50.204;8.132;2024-03-06T06:30:22;98549.81;;;1.12;100.00
59106;BME280;44891;50.204;8.132;2024-03-06T06:34:23;98562.16;;;1.02;100.00
59106;BME280;44891;50.204;8.132;2024-03-06T06:38:28;98566.03;;;0.98;100.00
59106;BME280;44891;50.204;8.132;2024-03-06T06:42:31;98572.94;;;1.05;100.00
59106;BME280;44891;50.204;8.132;2024-03-06T06:46:33;98574.38;;;1.16;100.00
59106;BME280;44891;50.204;8.132;2024-03-06T06:50:35;98581.38;;;1.07;100.00
59106;BME280;44891;50.204;8.132;2024-03-06T06:54:36;98591.75;;;1.30;100.00
59106;BME280;44891;50.204;8.132;2024-03-06T06:58:40;98594.69;;;1.27;100.00
59106;BME280;44891;50.204;8.132;2024-03-06T07:02:44;98594.97;;;1.63;100.00
59106;BME280;44891;50.204;8.132;2024-03-06T07:06:46;98596.56;;;1.64;100.00
59106;BME280;44891;50.204;8.132;2024-03-06T07:10:48;98602.72;;;1.63;100.00
59106;BME280;44891;50.204;8.132;2024-03-06T07:14:51;98601.72;;;1.73;100.00
59106;BME280;44891;50.204;8.132;2024-03-06T07:18:53;98616.34;;;1.88;100.00
59106;BME280;44891;50.204;8.132;2024-03-06T07:22:55;98620.25;;;2.07;100.00
59106;BME280;44891;50.204;8.132;2024-03-06T07:26:56;98622.16;;;2.13;100.00
59106;BME280;44891;50.204;8.132;2024-03-06T07:31:00;98619.56;;;2.13;100.00
59106;BME280;44891;50.204;8.132;2024-03-06T07:35:01;98619.09;;;2.33;100.00
59106;BME280;44891;50.204;8.132;2024-03-06T07:39:04;98628.78;;;2.68;100.00
59106;BME280;44891;50.204;8.132;2024-03-06T07:43:06;98628.88;;;2.90;100.00
59106;BME280;44891;50.204;8.132;2024-03-06T07:47:09;98634.72;;;2.92;100.00
59106;BME280;44891;50.204;8.132;2024-03-06T07:51:11;98651.44;;;3.19;100.00
59106;BME280;44891;50.204;8.132;2024-03-06T07:55:13;98643.59;;;3.12;100.00
59106;BME280;44891;50.204;8.132;2024-03-06T07:59:15;98656.72;;;3.25;100.00
59106;BME280;44891;50.204;8.132;2024-03-06T08:03:19;98647.06;;;3.05;100.00
59106;BME280;44891;50.204;8.132;2024-03-06T08:07:23;98662.09;;;3.24;100.00
59106;BME280;44891;50.204;8.132;2024-03-06T08:11:24;98665.16;;;3.78;100.00
59106;BME280;44891;50.204;8.132;2024-03-06T08:15:26;98664.69;;;4.11;100.00
59106;BME280;44891;50.204;8.132;2024-03-06T08:19:29;98667.09;;;4.13;100.00
59106;BME280;44891;50.204;8.132;2024-03-06T08:23:31;98671.69;;;4.32;100.00
59106;BME280;44891;50.204;8.132;2024-03-06T08:27:33;98671.34;;;4.63;100.00
59106;BME280;44891;50.204;8.132;2024-03-06T08:31:35;98673.41;;;4.74;100.00
59106;BME280;44891;50.204;8.132;2024-03-06T08:35:39;98677.53;;;4.62;100.00
59106;BME280;44891;50.204;8.132;2024-03-06T08:39:41;98680.41;;;5.02;100.00
59106;BME280;44891;50.204;8.132;2024-03-06T08:43:43;98680.19;;;5.31;100.00
59106;BME280;44891;50.204;8.132;2024-03-06T08:47:45;98685.25;;;5.39;100.00
59106;BME280;44891;50.204;8.132;2024-03-06T08:51:49;98689.00;;;5.78;100.00
59106;BME280;44891;50.204;8.132;2024-03-06T08:55:51;98691.91;;;5.49;100.00
59106;BME280;44891;50.204;8.132;2024-03-06T08:59:52;98706.06;;;5.39;100.00
59106;BME280;44891;50.204;8.132;2024-03-06T09:03:54;98707.72;;;5.47;100.00
59106;BME280;44891;50.204;8.132;2024-03-06T09:07:59;98712.94;;;5.54;100.00
59106;BME280;44891;50.204;8.132;2024-03-06T09:12:01;98721.22;;;5.64;100.00
59106;BME280;44891;50.204;8.132;2024-03-06T09:16:05;98709.84;;;5.71;100.00
59106;BME280;44891;50.204;8.132;2024-03-06T09:20:07;98725.59;;;5.57;100.00
59106;BME280;44891;50.204;8.132;2024-03-06T09:24:12;98726.41;;;5.98;100.00
59106;BME280;44891;50.204;8.132;2024-03-06T09:28:14;98725.66;;;6.18;100.00
59106;BME280;44891;50.204;8.132;2024-03-06T09:32:16;98722.53;;;6.56;100.00
59106;BME280;44891;50.204;8.132;2024-03-06T09:36:19;98728.34;;;6.77;100.00
59106;BME280;44891;50.204;8.132;2024-03-06T09:40:23;98727.97;;;6.87;100.00
59106;BME280;44891;50.204;8.132;2024-03-06T09:44:25;98736.16;;;7.24;100.00
59106;BME280;44891;50.204;8.132;2024-03-06T09:48:26;98734.63;;;8.19;100.00
59106;BME280;44891;50.204;8.132;2024-03-06T09:52:30;98727.78;;;8.56;99.84
59106;BME280;44891;50.204;8.132;2024-03-06T09:56:33;98734.81;;;8.17;98.85
59106;BME280;44891;50.204;8.132;2024-03-06T10:00:35;98735.13;;;7.38;100.00
59106;BME280;44891;50.204;8.132;2024-03-06T10:04:37;98733.13;;;7.40;100.00
59106;BME280;44891;50.204;8.132;2024-03-06T10:08:41;98727.59;;;7.68;100.00
59106;BME280;44891;50.204;8.132;2024-03-06T10:12:45;98733.44;;;8.53;100.00
59106;BME280;44891;50.204;8.132;2024-03-06T10:16:55;98726.31;;;9.72;95.04
59106;BME280;44891;50.204;8.132;2024-03-06T10:20:58;98725.88;;;10.53;89.65
59106;BME280;44891;50.204;8.132;2024-03-06T10:25:01;98724.31;;;10.04;86.41
59106;BME280;44891;50.204;8.132;2024-03-06T10:29:04;98727.38;;;9.82;86.67
59106;BME280;44891;50.204;8.132;2024-03-06T10:33:06;98734.59;;;10.24;87.50
59106;BME280;44891;50.204;8.132;2024-03-06T10:37:08;98736.91;;;10.97;83.62
59106;BME280;44891;50.204;8.132;2024-03-06T10:41:10;98735.88;;;12.09;79.71
59106;BME280;44891;50.204;8.132;2024-03-06T10:45:15;98731.81;;;12.18;77.38
59106;BME280;44891;50.204;8.132;2024-03-06T10:49:18;98736.22;;;11.13;79.26
59106;BME280;44891;50.204;8.132;2024-03-06T10:53:21;98727.38;;;11.66;79.59
59106;BME280;44891;50.204;8.132;2024-03-06T10:57:23;98723.34;;;10.47;84.68
59106;BME280;44891;50.204;8.132;2024-03-06T11:01:28;98730.72;;;10.80;85.64
59106;BME280;44891;50.204;8.132;2024-03-06T11:05:33;98727.25;;;14.35;68.55
59106;BME280;44891;50.204;8.132;2024-03-06T11:09:35;98728.81;;;15.28;70.91
59106;BME280;44891;50.204;8.132;2024-03-06T11:13:39;98717.88;;;14.77;63.70
59106;BME280;44891;50.204;8.132;2024-03-06T11:17:42;98709.97;;;20.55;50.59
59106;BME280;44891;50.204;8.132;2024-03-06T11:21:46;98700.59;;;24.09;43.00
59106;BME280;44891;50.204;8.132;2024-03-06T11:26:02;98715.22;;;16.65;55.21
59106;BME280;44891;50.204;8.132;2024-03-06T11:30:06;98713.97;;;11.91;73.25
59106;BME280;44891;50.204;8.132;2024-03-06T11:34:14;98717.34;;;13.16;69.07
59106;BME280;44891;50.204;8.132;2024-03-06T11:38:16;98713.22;;;13.81;67.97
59106;BME280;44891;50.204;8.132;2024-03-06T11:42:18;98706.28;;;15.25;58.07
59106;BME280;44891;50.204;8.132;2024-03-06T11:46:42;98704.16;;;13.99;64.67
59106;BME280;44891;50.204;8.132;2024-03-06T11:50:46;98701.81;;;20.28;51.14
59106;BME280;44891;50.204;8.132;2024-03-06T11:54:48;98705.19;;;20.33;49.81
59106;BME280;44891;50.204;8.132;2024-03-06T11:58:49;98708.25;;;16.08;53.91
59106;BME280;44891;50.204;8.132;2024-03-06T12:02:51;98710.28;;;19.49;47.88
59106;BME280;44891;50.204;8.132;2024-03-06T12:06:57;98708.38;;;26.70;38.31
59106;BME280;44891;50.204;8.132;2024-03-06T12:10:59;98708.28;;;21.38;42.36
59106;BME280;44891;50.204;8.132;2024-03-06T12:15:03;98713.66;;;24.98;38.14
59106;BME280;44891;50.204;8.132;2024-03-06T12:19:07;98718.31;;;25.65;35.99
59106;BME280;44891;50.204;8.132;2024-03-06T12:23:18;98724.19;;;26.17;34.19
59106;BME280;44891;50.204;8.132;2024-03-06T12:27:21;98730.56;;;27.21;34.38
59106;BME280;44891;50.204;8.132;2024-03-06T12:31:23;98729.22;;;28.96;32.71
59106;BME280;44891;50.204;8.132;2024-03-06T12:35:26;98738.59;;;30.32;31.12
59106;BME280;44891;50.204;8.132;2024-03-06T12:39:31;98734.47;;;28.49;33.19
59106;BME280;44891;50.204;8.132;2024-03-06T12:43:33;98745.00;;;24.33;38.00
59106;BME280;44891;50.204;8.132;2024-03-06T12:47:35;98728.38;;;20.89;41.77
59106;BME280;44891;50.204;8.132;2024-03-06T12:51:38;98721.13;;;19.58;43.64
59106;BME280;44891;50.204;8.132;2024-03-06T12:55:42;98729.78;;;22.24;41.09
59106;BME280;44891;50.204;8.132;2024-03-06T12:59:46;98719.66;;;17.46;47.25
59106;BME280;44891;50.204;8.132;2024-03-06T13:03:48;98723.59;;;15.01;54.38
59106;BME280;44891;50.204;8.132;2024-03-06T13:07:50;98722.81;;;14.14;57.73
59106;BME280;44891;50.204;8.132;2024-03-06T13:11:53;98715.22;;;12.17;60.50
59106;BME280;44891;50.204;8.132;2024-03-06T13:15:55;98720.91;;;12.26;62.24
59106;BME280;44891;50.204;8.132;2024-03-06T13:19:57;98712.56;;;11.02;65.71
59106;BME280;44891;50.204;8.132;2024-03-06T13:23:59;98712.00;;;11.23;66.84
59106;BME280;44891;50.204;8.132;2024-03-06T13:28:02;98715.19;;;11.37;67.08
59106;BME280;44891;50.204;8.132;2024-03-06T13:32:04;98717.69;;;11.43;67.61
59106;BME280;44891;50.204;8.132;2024-03-06T13:36:06;98711.34;;;10.39;71.45
59106;BME280;44891;50.204;8.132;2024-03-06T13:40:09;98719.16;;;10.57;71.51
59106;BME280;44891;50.204;8.132;2024-03-06T13:44:12;98728.44;;;10.95;71.55
59106;BME280;44891;50.204;8.132;2024-03-06T13:48:14;98725.16;;;10.46;72.78
59106;BME280;44891;50.204;8.132;2024-03-06T13:52:17;98733.72;;;10.83;72.39
59106;BME280;44891;50.204;8.132;2024-03-06T13:56:20;98727.34;;;10.19;73.45
59106;BME280;44891;50.204;8.132;2024-03-06T14:00:24;98727.41;;;10.73;72.57
59106;BME280;44891;50.204;8.132;2024-03-06T14:04:25;98726.16;;;10.15;74.38
59106;BME280;44891;50.204;8.132;2024-03-06T14:08:27;98732.53;;;10.26;74.52
59106;BME280;44891;50.204;8.132;2024-03-06T14:12:29;98734.22;;;10.50;75.03
59106;BME280;44891;50.204;8.132;2024-03-06T14:16:33;98731.50;;;10.08;74.82
59106;BME280;44891;50.204;8.132;2024-03-06T14:20:34;98738.41;;;10.21;74.39
59106;BME280;44891;50.204;8.132;2024-03-06T14:24:39;98736.25;;;10.00;74.75
59106;BME280;44891;50.204;8.132;2024-03-06T14:28:41;98740.41;;;9.89;74.04
59106;BME280;44891;50.204;8.132;2024-03-06T14:32:45;98739.03;;;10.05;73.19
59106;BME280;44891;50.204;8.132;2024-03-06T14:36:46;98742.09;;;10.02;72.52
59106;BME280;44891;50.204;8.132;2024-03-06T14:40:48;98734.50;;;10.30;72.57
59106;BME280;44891;50.204;8.132;2024-03-06T14:44:50;98736.19;;;9.88;73.74
59106;BME280;44891;50.204;8.132;2024-03-06T14:48:53;98740.72;;;9.99;72.98
59106;BME280;44891;50.204;8.132;2024-03-06T14:52:57;98741.81;;;9.92;72.27
59106;BME280;44891;50.204;8.132;2024-03-06T14:56:58;98743.09;;;10.19;71.60
59106;BME280;44891;50.204;8.132;2024-03-06T15:01:00;98732.94;;;9.74;72.42
59106;BME280;44891;50.204;8.132;2024-03-06T15:05:04;98739.22;;;9.73;72.16
59106;BME280;44891;50.204;8.132;2024-03-06T15:09:06;98735.25;;;9.82;72.35
59106;BME280;44891;50.204;8.132;2024-03-06T15:13:12;98733.81;;;9.87;72.38
59106;BME280;44891;50.204;8.132;2024-03-06T15:17:16;98742.72;;;9.67;72.21
59106;BME280;44891;50.204;8.132;2024-03-06T15:21:19;98736.28;;;9.81;73.08
59106;BME280;44891;50.204;8.132;2024-03-06T15:25:21;98745.09;;;9.87;72.94
59106;BME280;44891;50.204;8.132;2024-03-06T15:29:24;98746.28;;;9.73;72.89
59106;BME280;44891;50.204;8.132;2024-03-06T15:33:25;98748.31;;;9.71;72.64
59106;BME280;44891;50.204;8.132;2024-03-06T15:37:29;98739.63;;;9.70;73.70
59106;BME280;44891;50.204;8.132;2024-03-06T15:41:30;98747.31;;;9.72;73.37
59106;BME280;44891;50.204;8.132;2024-03-06T15:45:32;98746.03;;;9.56;74.40
59106;BME280;44891;50.204;8.132;2024-03-06T15:49:35;98749.25;;;9.76;73.34
59106;BME280;44891;50.204;8.132;2024-03-06T15:53:38;98748.47;;;9.58;73.63
59106;BME280;44891;50.204;8.132;2024-03-06T15:57:40;98741.09;;;9.48;74.20
59106;BME280;44891;50.204;8.132;2024-03-06T16:01:41;98755.28;;;9.77;73.30
59106;BME280;44891;50.204;8.132;2024-03-06T16:05:44;98754.16;;;9.73;74.08
59106;BME280;44891;50.204;8.132;2024-03-06T16:09:47;98753.72;;;9.58;74.60
59106;BME280;44891;50.204;8.132;2024-03-06T16:13:51;98759.59;;;9.53;74.82
59106;BME280;44891;50.204;8.132;2024-03-06T16:17:53;98758.94;;;9.39;75.52
59106;BME280;44891;50.204;8.132;2024-03-06T16:21:55;98759.28;;;9.43;74.74
59106;BME280;44891;50.204;8.132;2024-03-06T16:25:58;98762.22;;;9.53;75.16
59106;BME280;44891;50.204;8.132;2024-03-06T16:30:00;98760.88;;;9.44;75.15
59106;BME280;44891;50.204;8.132;2024-03-06T16:34:02;98771.63;;;9.17;76.15
59106;BME280;44891;50.204;8.132;2024-03-06T16:38:04;98768.69;;;9.32;76.59
59106;BME280;44891;50.204;8.132;2024-03-06T16:42:08;98778.44;;;9.43;75.93
59106;BME280;44891;50.204;8.132;2024-03-06T16:46:09;98781.31;;;9.17;77.32
59106;BME280;44891;50.204;8.132;2024-03-06T16:50:11;98779.81;;;9.27;77.03
59106;BME280;44891;50.204;8.132;2024-03-06T16:54:13;98783.56;;;9.13;77.29
59106;BME280;44891;50.204;8.132;2024-03-06T16:58:19;98788.81;;;9.13;77.80
59106;BME280;44891;50.204;8.132;2024-03-06T17:02:22;98790.91;;;9.05;78.23
59106;BME280;44891;50.204;8.132;2024-03-06T17:06:24;98794.09;;;9.07;78.59
59106;BME280;44891;50.204;8.132;2024-03-06T17:10:26;98801.94;;;8.82;80.33
59106;BME280;44891;50.204;8.132;2024-03-06T17:14:31;98796.38;;;8.65;81.46
59106;BME280;44891;50.204;8.132;2024-03-06T17:18:33;98800.75;;;8.46;82.48
59106;BME280;44891;50.204;8.132;2024-03-06T17:22:36;98805.47;;;8.62;81.87
59106;BME280;44891;50.204;8.132;2024-03-06T17:26:37;98807.69;;;8.65;82.17
59106;BME280;44891;50.204;8.132;2024-03-06T17:30:42;98813.63;;;8.48;83.58
59106;BME280;44891;50.204;8.132;2024-03-06T17:34:44;98821.09;;;8.31;83.00
59106;BME280;44891;50.204;8.132;2024-03-06T17:38:46;98822.28;;;8.48;82.76
59106;BME280;44891;50.204;8.132;2024-03-06T17:42:48;98827.53;;;8.41;82.63
59106;BME280;44891;50.204;8.132;2024-03-06T17:46:51;98828.56;;;8.34;83.20
59106;BME280;44891;50.204;8.132;2024-03-06T17:50:53;98830.41;;;8.27;83.99
59106;BME280;44891;50.204;8.132;2024-03-06T17:54:55;98843.06;;;8.30;84.04
59106;BME280;44891;50.204;8.132;2024-03-06T17:58:57;98855.22;;;8.04;84.68
59106;BME280;44891;50.204;8.132;2024-03-06T18:03:00;98851.59;;;7.99;85.24
59106;BME280;44891;50.204;8.132;2024-03-06T18:07:03;98844.63;;;7.79;85.35
59106;BME280;44891;50.204;8.132;2024-03-06T18:11:04;98849.47;;;7.69;85.51
59106;BME280;44891;50.204;8.132;2024-03-06T18:15:07;98851.47;;;7.74;83.79
59106;BME280;44891;50.204;8.132;2024-03-06T18:19:10;98849.44;;;7.82;83.53
59106;BME280;44891;50.204;8.132;2024-03-06T18:23:12;98849.66;;;7.81;83.32
59106;BME280;44891;50.204;8.132;2024-03-06T18:27:14;98853.88;;;7.75;83.29
59106;BME280;44891;50.204;8.132;2024-03-06T18:31:16;98863.31;;;7.76;83.57
59106;BME280;44891;50.204;8.132;2024-03-06T18:35:19;98863.34;;;7.63;83.62
59106;BME280;44891;50.204;8.132;2024-03-06T18:39:21;98865.59;;;7.46;84.54
59106;BME280;44891;50.204;8.132;2024-03-06T18:43:23;98866.19;;;7.22;84.61
59106;BME280;44891;50.204;8.132;2024-03-06T18:47:25;98869.38;;;7.11;85.02
59106;BME280;44891;50.204;8.132;2024-03-06T18:51:28;98869.56;;;7.09;84.95
59106;BME280;44891;50.204;8.132;2024-03-06T18:55:30;98881.41;;;7.12;84.69
59106;BME280;44891;50.204;8.132;2024-03-06T18:59:32;98879.81;;;7.11;84.78
59106;BME280;44891;50.204;8.132;2024-03-06T19:03:33;98888.47;;;7.18;84.65
59106;BME280;44891;50.204;8.132;2024-03-06T19:07:38;98891.69;;;7.13;84.95
59106;BME280;44891;50.204;8.132;2024-03-06T19:11:39;98887.63;;;6.97;85.11
59106;BME280;44891;50.204;8.132;2024-03-06T19:15:41;98891.84;;;6.92;85.34
59106;BME280;44891;50.204;8.132;2024-03-06T19:19:43;98884.63;;;6.87;86.11
59106;BME280;44891;50.204;8.132;2024-03-06T19:23:46;98885.34;;;6.68;86.75
59106;BME280;44891;50.204;8.132;2024-03-06T19:27:48;98883.47;;;6.48;88.07
59106;BME280;44891;50.204;8.132;2024-03-06T19:31:50;98892.66;;;6.38;89.17
59106;BME280;44891;50.204;8.132;2024-03-06T19:35:52;98891.03;;;6.30;90.41
59106;BME280;44891;50.204;8.132;2024-03-06T19:39:55;98889.50;;;6.08;89.88
59106;BME280;44891;50.204;8.132;2024-03-06T19:43:57;98892.91;;;5.80;91.22
59106;BME280;44891;50.204;8.132;2024-03-06T19:47:59;98893.06;;;5.72;90.12
59106;BME280;44891;50.204;8.132;2024-03-06T19:52:01;98896.38;;;5.59;91.51
59106;BME280;44891;50.204;8.132;2024-03-06T19:56:04;98905.97;;;5.59;92.57
59106;BME280;44891;50.204;8.132;2024-03-06T20:00:07;98908.28;;;5.47;93.29
59106;BME280;44891;50.204;8.132;2024-03-06T20:04:14;98910.72;;;5.27;92.66
59106;BME280;44891;50.204;8.132;2024-03-06T20:08:16;98906.44;;;5.19;93.50
59106;BME280;44891;50.204;8.132;2024-03-06T20:12:20;98914.31;;;5.05;93.57
59106;BME280;44891;50.204;8.132;2024-03-06T20:16:22;98910.16;;;4.89;95.33
59106;BME280;44891;50.204;8.132;2024-03-06T20:20:24;98914.69;;;5.02;94.75
59106;BME280;44891;50.204;8.132;2024-03-06T20:24:26;98904.88;;;4.82;95.95
59106;BME280;44891;50.204;8.132;2024-03-06T20:28:29;98911.63;;;4.62;96.11
59106;BME280;44891;50.204;8.132;2024-03-06T20:32:31;98916.50;;;4.65;95.73
59106;BME280;44891;50.204;8.132;2024-03-06T20:36:33;98919.28;;;4.49;96.61
59106;BME280;44891;50.204;8.132;2024-03-06T20:40:35;98921.91;;;4.04;96.77
59106;BME280;44891;50.204;8.132;2024-03-06T20:44:38;98922.44;;;4.15;96.70
59106;BME280;44891;50.204;8.132;2024-03-06T20:48:40;98921.72;;;4.21;97.42
59106;BME280;44891;50.204;8.132;2024-03-06T20:52:42;98916.91;;;4.03;97.12
59106;BME280;44891;50.204;8.132;2024-03-06T20:56:43;98918.94;;;3.93;97.59
59106;BME280;44891;50.204;8.132;2024-03-06T21:00:47;98921.63;;;3.70;96.68
59106;BME280;44891;50.204;8.132;2024-03-06T21:04:49;98919.84;;;3.47;97.60
59106;BME280;44891;50.204;8.132;2024-03-06T21:08:51;98921.41;;;3.57;98.79
59106;BME280;44891;50.204;8.132;2024-03-06T21:12:53;98916.25;;;3.48;98.31
59106;BME280;44891;50.204;8.132;2024-03-06T21:16:56;98918.56;;;3.43;98.82
59106;BME280;44891;50.204;8.132;2024-03-06T21:21:01;98918.13;;;3.40;99.90
59106;BME280;44891;50.204;8.132;2024-03-06T21:25:03;98916.59;;;3.31;99.14
59106;BME280;44891;50.204;8.132;2024-03-06T21:29:05;98917.22;;;3.33;97.95
59106;BME280;44891;50.204;8.132;2024-03-06T21:33:10;98915.69;;;3.15;98.97